createdAt,value
2018-11-07T00:02:00.868Z,9.69
2018-11-07T00:04:29.470Z,9.61
2018-11-07T00:06:58.098Z,9.65
2018-11-07T00:09:26.736Z,9.70
2018-11-07T00:11:55.333Z,9.67
2018-11-07T00:14:24.136Z,9.68
2018-11-07T00:16:53.359Z,9.69
2018-11-07T00:19:21.987Z,9.74
2018-11-07T00:21:50.623Z,9.70
2018-11-07T00:24:19.164Z,9.74
2018-11-07T00:26:47.744Z,9.81
2018-11-07T00:29:16.350Z,10.00
2018-11-07T00:31:45.034Z,10.01
2018-11-07T00:34:13.981Z,10.02
2018-11-07T00:36:42.557Z,10.01
2018-11-07T00:39:11.273Z,10.10
2018-11-07T00:41:39.878Z,10.14
2018-11-07T00:44:08.486Z,10.10
2018-11-07T00:46:37.081Z,10.08
2018-11-07T00:49:05.771Z,9.98
2018-11-07T00:51:34.393Z,10.03
2018-11-07T00:54:03.038Z,9.92
2018-11-07T00:56:31.689Z,9.89
2018-11-07T00:59:00.299Z,9.92
2018-11-07T01:01:29.029Z,9.82
2018-11-07T01:03:57.610Z,9.83
2018-11-07T01:06:26.223Z,9.76
2018-11-07T01:08:54.801Z,9.84
2018-11-07T01:11:23.387Z,9.90
2018-11-07T01:13:51.944Z,9.93
2018-11-07T01:16:20.578Z,9.89
2018-11-07T01:18:49.166Z,9.84
2018-11-07T01:21:17.743Z,9.90
2018-11-07T01:23:46.319Z,9.88
2018-11-07T01:26:14.933Z,9.78
2018-11-07T01:28:43.539Z,9.81
2018-11-07T01:31:12.572Z,9.88
2018-11-07T01:33:41.161Z,9.82
2018-11-07T01:36:09.826Z,9.78
2018-11-07T01:38:38.466Z,9.82
2018-11-07T01:41:07.070Z,9.77
2018-11-07T01:43:35.657Z,9.79
2018-11-07T01:46:04.305Z,9.87
2018-11-07T01:48:32.966Z,9.81
2018-11-07T01:51:01.604Z,9.93
2018-11-07T01:53:30.255Z,9.90
2018-11-07T01:55:58.881Z,9.88
2018-11-07T01:58:27.461Z,9.89
2018-11-07T02:00:56.110Z,9.85
2018-11-07T02:03:24.904Z,9.83
2018-11-07T02:05:53.487Z,9.75
2018-11-07T02:08:22.392Z,9.84
2018-11-07T02:10:50.975Z,9.92
2018-11-07T02:13:19.565Z,9.82
2018-11-07T02:15:48.189Z,9.78
2018-11-07T02:18:16.786Z,9.74
2018-11-07T02:20:45.361Z,9.65
2018-11-07T02:23:13.914Z,9.51
2018-11-07T02:25:42.447Z,9.48
2018-11-07T02:28:10.998Z,9.40
2018-11-07T02:30:39.752Z,9.31
2018-11-07T02:33:08.367Z,9.21
2018-11-07T02:35:36.967Z,9.20
2018-11-07T02:38:05.577Z,9.31
2018-11-07T02:40:34.247Z,9.34
2018-11-07T02:43:03.162Z,9.26
2018-11-07T02:45:31.743Z,9.29
2018-11-07T02:48:00.366Z,9.42
2018-11-07T02:50:28.941Z,9.41
2018-11-07T02:52:57.524Z,9.43
2018-11-07T02:55:26.091Z,9.30
2018-11-07T02:57:54.711Z,9.35
2018-11-07T03:00:23.323Z,9.34
2018-11-07T03:02:51.883Z,9.40
2018-11-07T03:05:20.538Z,9.32
2018-11-07T03:07:49.144Z,9.34
2018-11-07T03:10:17.831Z,9.31
2018-11-07T03:12:46.435Z,9.28
2018-11-07T03:15:15.062Z,9.35
2018-11-07T03:17:43.798Z,9.37
2018-11-07T03:20:13.343Z,9.47
2018-11-07T03:22:42.360Z,9.57
2018-11-07T03:25:10.925Z,9.34
2018-11-07T03:27:39.584Z,9.28
2018-11-07T03:30:09.112Z,9.27
2018-11-07T03:32:37.742Z,9.22
2018-11-07T03:35:10.798Z,9.20
2018-11-07T03:37:39.451Z,9.11
2018-11-07T03:40:08.081Z,9.01
2018-11-07T03:42:36.682Z,8.96
2018-11-07T03:45:05.643Z,8.93
2018-11-07T03:47:34.256Z,8.83
2018-11-07T03:50:02.829Z,8.78
2018-11-07T03:52:31.395Z,8.80
2018-11-07T03:55:00.118Z,8.96
2018-11-07T03:57:28.724Z,8.93
2018-11-07T03:59:57.302Z,8.97
2018-11-07T04:02:25.876Z,9.14
2018-11-07T04:04:54.571Z,9.11
2018-11-07T04:07:23.160Z,9.25
2018-11-07T04:09:51.701Z,9.52
2018-11-07T04:12:20.291Z,9.63
2018-11-07T04:14:48.894Z,9.57
2018-11-07T04:17:17.469Z,9.41
2018-11-07T04:19:46.137Z,9.34
2018-11-07T04:22:14.746Z,9.33
2018-11-07T04:24:43.489Z,9.21
2018-11-07T04:27:17.566Z,9.16
2018-11-07T04:29:46.853Z,9.09
2018-11-07T04:32:15.461Z,8.95
2018-11-07T04:34:44.223Z,9.03
2018-11-07T04:37:12.949Z,9.00
2018-11-07T04:39:41.589Z,8.93
2018-11-07T04:42:10.289Z,8.90
2018-11-07T04:47:12.778Z,8.74
2018-11-07T04:49:41.370Z,8.75
2018-11-07T04:52:10.081Z,8.82
2018-11-07T04:54:38.690Z,8.81
2018-11-07T04:57:07.345Z,8.75
2018-11-07T04:59:36.096Z,8.67
2018-11-07T05:02:04.750Z,8.66
2018-11-07T05:04:33.334Z,8.71
2018-11-07T05:07:01.909Z,8.70
2018-11-07T05:09:30.586Z,8.68
2018-11-07T05:11:59.232Z,8.70
2018-11-07T05:14:27.897Z,8.61
2018-11-07T05:16:56.568Z,8.60
2018-11-07T05:19:25.265Z,8.57
2018-11-07T05:21:54.954Z,8.49
2018-11-07T05:24:23.606Z,8.51
2018-11-07T05:26:52.241Z,8.46
2018-11-07T05:29:20.957Z,8.46
2018-11-07T05:31:49.704Z,8.48
2018-11-07T05:34:18.332Z,8.53
2018-11-07T05:36:47.043Z,8.54
2018-11-07T05:39:15.738Z,8.44
2018-11-07T05:41:44.397Z,8.54
2018-11-07T05:44:13.109Z,8.62
2018-11-07T05:46:41.770Z,8.65
2018-11-07T05:49:10.415Z,8.67
2018-11-07T05:51:39.204Z,8.56
2018-11-07T05:54:08.050Z,8.49
2018-11-07T05:56:36.773Z,8.43
2018-11-07T05:59:05.614Z,8.46
2018-11-07T06:01:34.258Z,8.43
2018-11-07T06:04:03.323Z,8.44
2018-11-07T06:06:31.919Z,8.36
2018-11-07T06:09:00.558Z,8.44
2018-11-07T06:11:29.546Z,8.49
2018-11-07T06:13:58.238Z,8.48
2018-11-07T06:16:26.914Z,8.49
2018-11-07T06:18:55.604Z,8.51
2018-11-07T06:21:24.265Z,8.56
2018-11-07T06:23:52.939Z,8.59
2018-11-07T06:26:21.568Z,8.72
2018-11-07T06:28:50.491Z,8.82
2018-11-07T06:31:19.240Z,8.86
2018-11-07T06:33:47.942Z,8.89
2018-11-07T06:36:16.568Z,8.98
2018-11-07T06:38:45.721Z,9.08
2018-11-07T06:41:14.306Z,9.32
2018-11-07T06:43:42.945Z,9.46
2018-11-07T06:46:12.018Z,9.56
2018-11-07T06:48:40.735Z,9.60
2018-11-07T06:51:09.374Z,9.67
2018-11-07T06:53:38.000Z,9.68
2018-11-07T06:56:06.666Z,9.69
2018-11-07T06:58:35.296Z,9.78
2018-11-07T07:01:04.002Z,9.88
2018-11-07T07:03:32.625Z,9.98
2018-11-07T07:06:01.292Z,9.99
2018-11-07T07:08:29.960Z,10.08
2018-11-07T07:10:58.686Z,10.04
2018-11-07T07:13:27.391Z,10.06
2018-11-07T07:15:56.162Z,10.08
2018-11-07T07:18:24.833Z,10.18
2018-11-07T07:20:53.522Z,10.16
2018-11-07T07:23:22.172Z,10.22
2018-11-07T07:25:50.822Z,10.26
2018-11-07T07:28:19.463Z,10.29
2018-11-07T07:30:48.090Z,10.32
2018-11-07T07:33:16.821Z,10.42
2018-11-07T07:35:45.377Z,10.61
2018-11-07T07:38:14.050Z,10.59
2018-11-07T07:40:42.813Z,10.71
2018-11-07T07:43:11.493Z,10.83
2018-11-07T07:45:40.211Z,10.85
2018-11-07T07:48:09.054Z,10.93
2018-11-07T07:50:37.832Z,11.00
2018-11-07T07:53:06.545Z,11.02
2018-11-07T07:55:35.200Z,11.18
2018-11-07T07:58:03.947Z,11.27
2018-11-07T08:00:32.674Z,11.28
2018-11-07T08:03:01.938Z,11.36
2018-11-07T08:05:30.865Z,11.45
2018-11-07T08:08:00.969Z,11.47
2018-11-07T08:10:30.256Z,11.64
2018-11-07T08:12:59.755Z,11.60
2018-11-07T08:15:31.357Z,11.75
2018-11-07T08:18:00.004Z,11.83
2018-11-07T08:20:28.752Z,11.92
2018-11-07T08:23:00.172Z,12.04
2018-11-07T08:25:28.861Z,12.14
2018-11-07T08:30:35.400Z,12.33
2018-11-07T08:33:04.239Z,12.45
2018-11-07T08:35:33.136Z,12.32
2018-11-07T08:38:02.136Z,12.37
2018-11-07T08:40:32.001Z,12.39
2018-11-07T08:43:00.876Z,12.60
2018-11-07T08:45:31.161Z,12.72
2018-11-07T08:48:01.920Z,12.73
2018-11-07T08:50:30.536Z,12.87
2018-11-07T08:53:00.118Z,12.86
2018-11-07T08:55:29.328Z,12.91
2018-11-07T08:57:58.453Z,12.93
2018-11-07T09:00:27.367Z,12.97
2018-11-07T09:02:56.062Z,13.08
2018-11-07T09:05:27.051Z,13.31
2018-11-07T09:07:56.066Z,13.32
2018-11-07T09:10:25.411Z,13.33
2018-11-07T09:12:54.083Z,13.38
2018-11-07T09:15:23.612Z,13.27
2018-11-07T09:17:52.251Z,13.37
2018-11-07T09:20:25.043Z,13.48
2018-11-07T09:22:53.667Z,13.53
2018-11-07T09:25:22.325Z,13.43
2018-11-07T09:27:51.019Z,13.50
2018-11-07T09:30:20.970Z,13.71
2018-11-07T09:32:49.766Z,13.92
2018-11-07T09:35:18.853Z,13.96
2018-11-07T09:37:47.701Z,14.01
2018-11-07T09:40:17.687Z,14.12
2018-11-07T09:42:47.007Z,14.25
2018-11-07T09:45:16.952Z,14.31
2018-11-07T09:47:46.037Z,14.54
2018-11-07T09:50:15.525Z,14.72
2018-11-07T09:52:44.727Z,14.87
2018-11-07T09:55:14.626Z,14.82
2018-11-07T09:57:43.387Z,14.67
2018-11-07T10:00:14.624Z,14.71
2018-11-07T10:02:43.706Z,14.85
2018-11-07T10:05:13.107Z,14.90
2018-11-07T10:07:42.179Z,14.99
2018-11-07T10:10:12.913Z,15.01
2018-11-07T10:12:41.885Z,15.23
2018-11-07T10:15:11.072Z,15.32
2018-11-07T10:17:39.744Z,15.50
2018-11-07T10:20:10.994Z,15.55
2018-11-07T10:22:39.649Z,15.89
2018-11-07T10:25:08.762Z,15.94
2018-11-07T10:27:37.830Z,16.03
2018-11-07T10:30:07.843Z,16.06
2018-11-07T10:32:36.123Z,16.27
2018-11-07T10:35:05.831Z,16.20
2018-11-07T10:37:34.526Z,16.22
2018-11-07T10:40:03.231Z,16.10
2018-11-07T10:42:31.879Z,16.18
2018-11-07T10:45:00.696Z,16.08
2018-11-07T10:47:29.343Z,16.02
2018-11-07T10:49:58.309Z,16.05
2018-11-07T10:52:26.997Z,15.95
2018-11-07T10:54:55.706Z,15.80
2018-11-07T10:57:25.098Z,15.90
2018-11-07T10:59:54.844Z,15.89
2018-11-07T11:02:28.752Z,16.00
2018-11-07T11:04:57.439Z,15.93
2018-11-07T11:07:26.231Z,16.19
2018-11-07T11:09:54.969Z,16.32
2018-11-07T11:12:24.232Z,16.34
2018-11-07T11:14:53.154Z,16.32
2018-11-07T11:17:21.839Z,16.32
2018-11-07T11:19:50.678Z,16.21
2018-11-07T11:22:19.357Z,16.36
2018-11-07T11:24:47.997Z,16.32
2018-11-07T11:27:16.650Z,16.38
2018-11-07T11:29:45.266Z,16.38
2018-11-07T11:32:13.917Z,16.48
2018-11-07T11:34:42.864Z,16.28
2018-11-07T11:37:11.470Z,16.27
2018-11-07T11:39:40.115Z,16.31
2018-11-07T11:42:09.194Z,16.30
2018-11-07T11:44:37.882Z,16.23
2018-11-07T11:47:06.523Z,16.28
2018-11-07T11:49:35.528Z,16.45
2018-11-07T11:52:04.182Z,16.38
2018-11-07T11:54:33.826Z,16.42
2018-11-07T11:57:02.650Z,16.49
2018-11-07T11:59:31.474Z,16.81
2018-11-07T12:02:00.097Z,16.82
2018-11-07T12:04:28.697Z,16.70
2018-11-07T12:06:57.359Z,16.78
2018-11-07T12:09:25.983Z,16.89
2018-11-07T12:11:54.661Z,16.93
2018-11-07T12:14:23.951Z,16.86
2018-11-07T12:16:52.557Z,16.93
2018-11-07T12:19:21.210Z,17.06
2018-11-07T12:21:50.287Z,17.14
2018-11-07T12:24:18.976Z,17.31
2018-11-07T12:26:47.609Z,17.16
2018-11-07T12:29:16.255Z,17.02
2018-11-07T12:31:44.963Z,16.92
2018-11-07T12:34:14.750Z,17.02
2018-11-07T12:36:43.491Z,16.94
2018-11-07T12:39:12.281Z,16.75
2018-11-07T12:41:40.986Z,16.88
2018-11-07T12:44:09.714Z,16.93
2018-11-07T12:46:38.379Z,17.00
2018-11-07T12:49:07.068Z,17.07
2018-11-07T12:51:35.662Z,17.10
2018-11-07T12:54:04.338Z,17.05
2018-11-07T12:56:32.966Z,17.03
2018-11-07T12:59:01.708Z,17.06
2018-11-07T13:01:30.292Z,16.97
2018-11-07T13:03:58.913Z,16.93
2018-11-07T13:06:27.570Z,16.82
2018-11-07T13:08:56.237Z,16.71
2018-11-07T13:11:24.936Z,16.78
2018-11-07T13:13:53.525Z,16.80
2018-11-07T13:16:22.152Z,16.66
2018-11-07T13:18:50.866Z,16.68
2018-11-07T13:21:19.642Z,16.66
2018-11-07T13:23:48.310Z,16.73
2018-11-07T13:26:17.001Z,16.76
2018-11-07T13:28:45.633Z,16.83
2018-11-07T13:31:20.600Z,16.64
2018-11-07T13:33:49.509Z,16.56
2018-11-07T13:36:18.185Z,16.55
2018-11-07T13:38:47.216Z,16.51
2018-11-07T13:41:15.711Z,16.58
2018-11-07T13:43:44.374Z,16.55
2018-11-07T13:46:13.081Z,16.52
2018-11-07T13:48:41.716Z,16.66
2018-11-07T13:51:10.389Z,16.79
2018-11-07T13:53:39.022Z,17.06
2018-11-07T13:56:07.641Z,17.15
2018-11-07T13:58:36.266Z,17.30
2018-11-07T14:01:04.956Z,17.18
2018-11-07T14:03:33.705Z,17.12
2018-11-07T14:06:02.378Z,16.80
2018-11-07T14:08:30.989Z,16.59
2018-11-07T14:10:59.610Z,16.48
2018-11-07T14:13:28.266Z,16.30
2018-11-07T14:15:56.945Z,16.05
2018-11-07T14:18:25.573Z,15.95
2018-11-07T14:20:55.140Z,15.95
2018-11-07T14:23:23.870Z,15.93
2018-11-07T14:25:52.810Z,15.86
2018-11-07T14:28:21.935Z,15.82
2018-11-07T14:30:50.310Z,15.74
2018-11-07T14:33:19.788Z,15.67
2018-11-07T14:35:48.430Z,15.38
2018-11-07T14:38:17.030Z,15.27
2018-11-07T14:40:45.674Z,15.20
2018-11-07T14:43:14.301Z,15.11
2018-11-07T14:45:42.902Z,15.03
2018-11-07T14:48:11.659Z,14.95
2018-11-07T14:50:40.276Z,14.83
2018-11-07T14:53:08.908Z,14.65
2018-11-07T14:55:37.566Z,14.59
2018-11-07T14:58:06.189Z,14.60
2018-11-07T15:00:34.866Z,14.37
2018-11-07T15:03:03.498Z,14.29
2018-11-07T15:05:32.156Z,14.19
2018-11-07T15:08:01.720Z,14.02
2018-11-07T15:10:30.299Z,13.93
2018-11-07T15:12:58.959Z,13.94
2018-11-07T15:15:27.681Z,13.82
2018-11-07T15:17:56.298Z,13.73
2018-11-07T15:20:26.173Z,13.68
2018-11-07T15:22:54.846Z,13.62
2018-11-07T15:25:23.481Z,13.55
2018-11-07T15:27:52.131Z,13.46
2018-11-07T15:30:20.810Z,13.33
2018-11-07T15:32:49.410Z,13.26
2018-11-07T15:35:18.030Z,13.33
2018-11-07T15:37:46.771Z,13.25
2018-11-07T15:40:17.026Z,13.22
2018-11-07T15:42:46.249Z,13.16
2018-11-07T15:45:19.282Z,12.90
2018-11-07T15:47:47.908Z,12.77
2018-11-07T15:50:21.862Z,12.83
2018-11-07T15:52:50.878Z,12.72
2018-11-07T15:55:19.619Z,12.72
2018-11-07T15:57:48.291Z,12.85
2018-11-07T16:00:17.946Z,12.80
2018-11-07T16:02:46.601Z,12.70
2018-11-07T16:05:16.277Z,12.53
2018-11-07T16:07:44.983Z,12.66
2018-11-07T16:10:14.683Z,12.61
2018-11-07T16:12:43.564Z,12.44
2018-11-07T16:15:14.892Z,12.48
2018-11-07T16:17:43.786Z,12.44
2018-11-07T16:20:14.847Z,12.41
2018-11-07T16:22:44.530Z,12.49
2018-11-07T16:25:13.254Z,12.53
2018-11-07T16:27:42.783Z,12.57
2018-11-07T16:30:13.861Z,12.53
2018-11-07T16:32:42.645Z,12.62
2018-11-07T16:35:12.526Z,12.73
2018-11-07T16:37:41.634Z,12.68
2018-11-07T16:40:12.093Z,12.62
2018-11-07T16:42:41.341Z,12.69
2018-11-07T16:45:11.143Z,12.69
2018-11-07T16:47:39.908Z,12.71
2018-11-07T16:50:09.851Z,12.75
2018-11-07T16:52:38.922Z,12.76
2018-11-07T16:55:07.746Z,12.70
2018-11-07T16:57:37.086Z,12.75
2018-11-07T17:00:07.776Z,12.73
2018-11-07T17:02:36.971Z,12.67
2018-11-07T17:05:05.873Z,12.44
2018-11-07T17:07:34.511Z,12.25
2018-11-07T17:10:03.209Z,12.24
2018-11-07T17:12:31.843Z,12.31
2018-11-07T17:15:00.514Z,12.22
2018-11-07T17:17:29.238Z,12.20
2018-11-07T17:19:57.921Z,12.16
2018-11-07T17:22:26.851Z,12.13
2018-11-07T17:24:55.525Z,12.07
2018-11-07T17:27:24.331Z,12.21
2018-11-07T17:29:53.518Z,12.19
2018-11-07T17:32:22.218Z,12.15
2018-11-07T17:34:50.856Z,12.01
2018-11-07T17:37:19.480Z,11.90
2018-11-07T17:39:48.154Z,11.84
2018-11-07T17:42:16.907Z,11.95
2018-11-07T17:44:45.608Z,11.92
2018-11-07T17:47:14.302Z,11.85
2018-11-07T17:49:43.025Z,11.85
2018-11-07T17:52:11.764Z,11.96
2018-11-07T17:54:40.521Z,11.90
2018-11-07T17:57:09.231Z,11.88
2018-11-07T17:59:38.234Z,11.85
2018-11-07T18:02:06.973Z,11.92
2018-11-07T18:04:35.767Z,11.87
2018-11-07T18:07:04.527Z,11.86
2018-11-07T18:09:33.407Z,11.92
2018-11-07T18:12:02.113Z,11.90
2018-11-07T18:14:30.789Z,11.85
2018-11-07T18:16:59.627Z,11.79
2018-11-07T18:19:28.362Z,11.70
2018-11-07T18:21:57.033Z,11.62
2018-11-07T18:24:25.668Z,11.75
2018-11-07T18:26:54.390Z,11.72
2018-11-07T18:29:23.106Z,11.72
2018-11-07T18:31:51.808Z,11.66
2018-11-07T18:34:20.500Z,11.64
2018-11-07T18:36:49.183Z,11.57
2018-11-07T18:39:17.867Z,11.49
2018-11-07T18:41:46.568Z,11.52
2018-11-07T18:44:15.376Z,11.49
2018-11-07T18:46:44.726Z,11.52
2018-11-07T18:49:13.673Z,11.51
2018-11-07T18:51:42.543Z,11.44
2018-11-07T18:54:11.247Z,11.49
2018-11-07T18:56:39.877Z,11.40
2018-11-07T18:59:08.664Z,11.45
2018-11-07T19:01:37.816Z,11.35
2018-11-07T19:04:06.450Z,11.34
2018-11-07T19:06:35.205Z,11.36
2018-11-07T19:09:06.930Z,11.37
2018-11-07T19:11:35.683Z,11.38
2018-11-07T19:14:04.575Z,11.41
2018-11-07T19:16:33.443Z,11.44
2018-11-07T19:19:02.163Z,11.42
2018-11-07T19:21:31.309Z,11.37
2018-11-07T19:23:59.972Z,11.41
2018-11-07T19:26:29.333Z,11.45
2018-11-07T19:28:58.016Z,11.37
2018-11-07T19:31:26.707Z,11.43
2018-11-07T19:33:55.582Z,11.41
2018-11-07T19:36:24.286Z,11.35
2018-11-07T19:38:53.035Z,11.32
2018-11-07T19:41:21.967Z,11.29
2018-11-07T19:43:51.313Z,11.29
2018-11-07T19:46:20.001Z,11.20
2018-11-07T19:48:48.677Z,11.29
2018-11-07T19:51:17.355Z,11.16
2018-11-07T19:53:46.024Z,11.13
2018-11-07T19:56:14.923Z,11.22
2018-11-07T19:58:43.580Z,11.28
2018-11-07T20:01:12.217Z,11.24
2018-11-07T20:03:40.898Z,11.24
2018-11-07T20:06:09.697Z,11.25
2018-11-07T20:08:38.342Z,11.22
2018-11-07T20:11:07.089Z,11.23
2018-11-07T20:13:35.917Z,11.18
2018-11-07T20:16:04.660Z,11.14
2018-11-07T20:18:36.103Z,11.15
2018-11-07T20:21:11.245Z,11.17
2018-11-07T20:23:39.938Z,11.26
2018-11-07T20:26:08.577Z,11.30
2018-11-07T20:28:38.027Z,11.35
2018-11-07T20:31:06.771Z,11.29
2018-11-07T20:33:35.424Z,11.25
2018-11-07T20:36:04.154Z,11.21
2018-11-07T20:38:33.395Z,11.06
2018-11-07T20:41:08.895Z,10.96
2018-11-07T20:43:37.521Z,10.98
2018-11-07T20:46:06.499Z,10.99
2018-11-07T20:48:35.145Z,10.93
2018-11-07T20:51:03.930Z,10.86
2018-11-07T20:53:32.662Z,10.74
2018-11-07T20:56:01.421Z,10.72
2018-11-07T20:58:30.254Z,10.67
2018-11-07T21:00:59.123Z,10.62
2018-11-07T21:03:28.138Z,10.66
2018-11-07T21:06:00.324Z,10.62
2018-11-07T21:08:29.353Z,10.65
2018-11-07T21:10:58.104Z,10.70
2018-11-07T21:13:26.899Z,10.80
2018-11-07T21:15:55.687Z,10.78
2018-11-07T21:18:24.323Z,10.87
2018-11-07T21:20:53.087Z,10.89
2018-11-07T21:23:21.877Z,10.78
2018-11-07T21:25:50.513Z,10.71
2018-11-07T21:28:19.185Z,10.74
2018-11-07T21:30:47.847Z,10.80
2018-11-07T21:33:16.538Z,10.83
2018-11-07T21:35:45.226Z,10.74
2018-11-07T21:38:13.919Z,10.65
2018-11-07T21:40:42.746Z,10.67
2018-11-07T21:43:11.502Z,10.60
2018-11-07T21:48:14.105Z,10.60
2018-11-07T21:50:42.746Z,10.56
2018-11-07T21:53:11.599Z,10.55
2018-11-07T21:55:40.245Z,10.50
2018-11-07T21:58:08.910Z,10.39
2018-11-07T22:00:37.617Z,10.30
2018-11-07T22:03:06.341Z,10.22
2018-11-07T22:05:34.978Z,10.17
2018-11-07T22:08:03.622Z,10.11
2018-11-07T22:10:32.265Z,10.03
2018-11-07T22:13:01.005Z,9.98
2018-11-07T22:15:29.615Z,10.00
2018-11-07T22:17:58.281Z,10.00
2018-11-07T22:20:26.876Z,9.98
2018-11-07T22:22:55.508Z,9.96
2018-11-07T22:25:24.182Z,9.93
2018-11-07T22:27:52.840Z,9.89
2018-11-07T22:30:21.478Z,9.90
2018-11-07T22:32:50.092Z,9.83
2018-11-07T22:35:18.974Z,9.84
2018-11-07T22:37:47.813Z,9.85
2018-11-07T22:40:17.739Z,9.82
2018-11-07T22:42:46.393Z,9.81
2018-11-07T22:45:15.407Z,9.78
2018-11-07T22:47:44.072Z,9.78
2018-11-07T22:50:13.840Z,9.82
2018-11-07T22:52:43.687Z,9.76
2018-11-07T22:55:12.437Z,9.74
2018-11-07T22:57:41.103Z,9.69
2018-11-07T23:00:19.489Z,9.76
2018-11-07T23:02:50.751Z,9.73
2018-11-07T23:05:19.527Z,9.73
2018-11-07T23:07:48.960Z,9.75
2018-11-07T23:10:17.717Z,9.77
2018-11-07T23:12:46.902Z,9.75
2018-11-07T23:15:21.023Z,9.72
2018-11-07T23:17:50.222Z,9.69
2018-11-07T23:20:19.426Z,9.65
2018-11-07T23:22:48.247Z,9.62
2018-11-07T23:25:24.704Z,9.59
2018-11-07T23:27:53.569Z,9.51
2018-11-07T23:30:22.488Z,9.44
2018-11-07T23:32:51.873Z,9.41
2018-11-07T23:35:20.536Z,9.37
2018-11-07T23:37:49.244Z,9.31
2018-11-07T23:40:19.079Z,9.29
2018-11-07T23:42:48.000Z,9.26
2018-11-07T23:45:16.846Z,9.32
2018-11-07T23:47:45.522Z,9.37
2018-11-07T23:50:14.871Z,9.36
2018-11-07T23:52:49.164Z,9.33
2018-11-07T23:55:19.519Z,9.27
2018-11-07T23:57:49.089Z,9.23
